sensor_id;sensor_type;location;lat;lon;timestamp;P1;durP1;ratioP1;P2;durP2;ratioP2
4460;SDS011;2243;48.812;9.232;2023-05-29T00:01:30;8.10;;;6.60;;
4460;SDS011;2243;48.812;9.232;2023-05-29T00:04:02;9.47;;;6.57;;
4460;SDS011;2243;48.812;9.232;2023-05-29T00:06:33;9.50;;;6.67;;
4460;SDS011;2243;48.812;9.232;2023-05-29T00:09:04;10.80;;;7.00;;
4460;SDS011;2243;48.812;9.232;2023-05-29T00:11:35;12.80;;;7.33;;
4460;SDS011;2243;48.812;9.232;2023-05-29T00:14:06;13.17;;;7.33;;
4460;SDS011;2243;48.812;9.232;2023-05-29T00:16:37;10.43;;;6.93;;
4460;SDS011;2243;48.812;9.232;2023-05-29T00:19:08;16.03;;;6.80;;
4460;SDS011;2243;48.812;9.232;2023-05-29T00:21:39;9.90;;;6.47;;
4460;SDS011;2243;48.812;9.232;2023-05-29T00:24:10;7.73;;;6.90;;
4460;SDS011;2243;48.812;9.232;2023-05-29T00:26:41;9.87;;;6.83;;
4460;SDS011;2243;48.812;9.232;2023-05-29T00:29:13;7.80;;;6.70;;
4460;SDS011;2243;48.812;9.232;2023-05-29T00:31:45;9.83;;;7.30;;
4460;SDS011;2243;48.812;9.232;2023-05-29T00:34:16;10.40;;;6.43;;
4460;SDS011;2243;48.812;9.232;2023-05-29T00:36:47;11.93;;;6.60;;
4460;SDS011;2243;48.812;9.232;2023-05-29T00:39:19;11.47;;;6.83;;
4460;SDS011;2243;48.812;9.232;2023-05-29T00:41:50;7.37;;;6.00;;
4460;SDS011;2243;48.812;9.232;2023-05-29T00:44:21;11.27;;;7.07;;
4460;SDS011;2243;48.812;9.232;2023-05-29T00:46:52;10.50;;;7.00;;
4460;SDS011;2243;48.812;9.232;2023-05-29T00:49:23;6.90;;;5.57;;
4460;SDS011;2243;48.812;9.232;2023-05-29T00:51:55;8.17;;;6.90;;
4460;SDS011;2243;48.812;9.232;2023-05-29T00:54:28;8.07;;;6.37;;
4460;SDS011;2243;48.812;9.232;2023-05-29T00:57:00;12.53;;;6.37;;
4460;SDS011;2243;48.812;9.232;2023-05-29T00:59:33;6.27;;;5.67;;
4460;SDS011;2243;48.812;9.232;2023-05-29T01:02:04;10.37;;;6.37;;
4460;SDS011;2243;48.812;9.232;2023-05-29T01:04:36;9.43;;;6.20;;
4460;SDS011;2243;48.812;9.232;2023-05-29T01:07:08;6.23;;;5.63;;
4460;SDS011;2243;48.812;9.232;2023-05-29T01:09:39;8.97;;;5.40;;
4460;SDS011;2243;48.812;9.232;2023-05-29T01:24:01;10.53;;;6.37;;
4460;SDS011;2243;48.812;9.232;2023-05-29T01:29:29;6.57;;;5.33;;
4460;SDS011;2243;48.812;9.232;2023-05-29T01:32:02;7.90;;;5.70;;
4460;SDS011;2243;48.812;9.232;2023-05-29T01:34:35;9.33;;;6.60;;
4460;SDS011;2243;48.812;9.232;2023-05-29T01:37:06;8.50;;;5.70;;
4460;SDS011;2243;48.812;9.232;2023-05-29T01:39:37;6.63;;;5.83;;
4460;SDS011;2243;48.812;9.232;2023-05-29T01:42:08;7.50;;;5.33;;
4460;SDS011;2243;48.812;9.232;2023-05-29T01:44:39;9.10;;;6.47;;
4460;SDS011;2243;48.812;9.232;2023-05-29T01:47:12;10.50;;;5.77;;
4460;SDS011;2243;48.812;9.232;2023-05-29T01:49:43;7.83;;;6.37;;
4460;SDS011;2243;48.812;9.232;2023-05-29T01:52:15;6.20;;;5.60;;
4460;SDS011;2243;48.812;9.232;2023-05-29T01:54:46;11.50;;;6.40;;
4460;SDS011;2243;48.812;9.232;2023-05-29T01:57:17;7.73;;;5.90;;
4460;SDS011;2243;48.812;9.232;2023-05-29T01:59:48;7.50;;;6.07;;
4460;SDS011;2243;48.812;9.232;2023-05-29T02:02:21;7.87;;;5.63;;
4460;SDS011;2243;48.812;9.232;2023-05-29T02:04:55;9.27;;;4.93;;
4460;SDS011;2243;48.812;9.232;2023-05-29T02:07:26;7.03;;;5.73;;
4460;SDS011;2243;48.812;9.232;2023-05-29T02:09:57;6.77;;;6.07;;
4460;SDS011;2243;48.812;9.232;2023-05-29T02:12:28;6.67;;;5.97;;
4460;SDS011;2243;48.812;9.232;2023-05-29T02:14:59;10.00;;;5.90;;
4460;SDS011;2243;48.812;9.232;2023-05-29T02:17:30;11.70;;;6.13;;
4460;SDS011;2243;48.812;9.232;2023-05-29T02:20:02;8.83;;;5.77;;
4460;SDS011;2243;48.812;9.232;2023-05-29T02:22:34;6.10;;;5.50;;
4460;SDS011;2243;48.812;9.232;2023-05-29T02:25:05;8.93;;;6.40;;
4460;SDS011;2243;48.812;9.232;2023-05-29T02:27:37;7.90;;;5.53;;
4460;SDS011;2243;48.812;9.232;2023-05-29T02:30:08;10.57;;;5.40;;
4460;SDS011;2243;48.812;9.232;2023-05-29T02:32:39;9.27;;;6.23;;
4460;SDS011;2243;48.812;9.232;2023-05-29T02:35:11;7.50;;;6.07;;
4460;SDS011;2243;48.812;9.232;2023-05-29T02:37:45;9.53;;;6.00;;
4460;SDS011;2243;48.812;9.232;2023-05-29T02:40:17;9.83;;;6.07;;
4460;SDS011;2243;48.812;9.232;2023-05-29T02:42:49;7.50;;;5.67;;
4460;SDS011;2243;48.812;9.232;2023-05-29T02:45:21;8.50;;;6.07;;
4460;SDS011;2243;48.812;9.232;2023-05-29T02:47:52;13.40;;;6.20;;
4460;SDS011;2243;48.812;9.232;2023-05-29T02:50:23;6.00;;;5.13;;
4460;SDS011;2243;48.812;9.232;2023-05-29T02:52:54;7.77;;;5.57;;
4460;SDS011;2243;48.812;9.232;2023-05-29T02:55:25;10.67;;;6.47;;
4460;SDS011;2243;48.812;9.232;2023-05-29T02:57:56;7.33;;;5.47;;
4460;SDS011;2243;48.812;9.232;2023-05-29T03:00:27;9.77;;;6.10;;
4460;SDS011;2243;48.812;9.232;2023-05-29T03:02:58;6.67;;;5.17;;
4460;SDS011;2243;48.812;9.232;2023-05-29T03:05:31;7.63;;;5.57;;
4460;SDS011;2243;48.812;9.232;2023-05-29T03:08:02;8.73;;;6.10;;
4460;SDS011;2243;48.812;9.232;2023-05-29T03:10:33;13.80;;;6.60;;
4460;SDS011;2243;48.812;9.232;2023-05-29T03:13:05;9.40;;;6.10;;
4460;SDS011;2243;48.812;9.232;2023-05-29T03:15:36;12.63;;;6.07;;
4460;SDS011;2243;48.812;9.232;2023-05-29T03:18:07;8.23;;;6.07;;
4460;SDS011;2243;48.812;9.232;2023-05-29T03:20:38;10.80;;;6.73;;
4460;SDS011;2243;48.812;9.232;2023-05-29T03:23:09;8.00;;;6.43;;
4460;SDS011;2243;48.812;9.232;2023-05-29T03:25:40;10.10;;;6.47;;
4460;SDS011;2243;48.812;9.232;2023-05-29T03:28:11;7.90;;;5.80;;
4460;SDS011;2243;48.812;9.232;2023-05-29T03:30:42;8.10;;;6.70;;
4460;SDS011;2243;48.812;9.232;2023-05-29T03:33:13;10.93;;;6.70;;
4460;SDS011;2243;48.812;9.232;2023-05-29T03:35:44;8.03;;;6.13;;
4460;SDS011;2243;48.812;9.232;2023-05-29T03:38:15;9.73;;;5.70;;
4460;SDS011;2243;48.812;9.232;2023-05-29T03:40:46;8.47;;;5.60;;
4460;SDS011;2243;48.812;9.232;2023-05-29T03:43:17;10.73;;;6.33;;
4460;SDS011;2243;48.812;9.232;2023-05-29T03:45:48;10.13;;;5.60;;
4460;SDS011;2243;48.812;9.232;2023-05-29T03:48:19;5.63;;;4.40;;
4460;SDS011;2243;48.812;9.232;2023-05-29T03:50:50;6.20;;;5.37;;
4460;SDS011;2243;48.812;9.232;2023-05-29T03:53:21;6.73;;;6.03;;
4460;SDS011;2243;48.812;9.232;2023-05-29T03:55:52;8.43;;;5.40;;
4460;SDS011;2243;48.812;9.232;2023-05-29T03:58:23;12.20;;;6.70;;
4460;SDS011;2243;48.812;9.232;2023-05-29T04:00:54;6.87;;;6.00;;
4460;SDS011;2243;48.812;9.232;2023-05-29T04:03:26;7.93;;;5.70;;
4460;SDS011;2243;48.812;9.232;2023-05-29T04:05:57;8.87;;;6.47;;
4460;SDS011;2243;48.812;9.232;2023-05-29T04:08:28;6.60;;;5.67;;
4460;SDS011;2243;48.812;9.232;2023-05-29T04:11:00;11.03;;;6.10;;
4460;SDS011;2243;48.812;9.232;2023-05-29T04:13:31;12.07;;;6.50;;
4460;SDS011;2243;48.812;9.232;2023-05-29T04:16:02;6.37;;;5.33;;
4460;SDS011;2243;48.812;9.232;2023-05-29T04:18:33;9.63;;;5.70;;
4460;SDS011;2243;48.812;9.232;2023-05-29T04:21:04;7.93;;;6.20;;
4460;SDS011;2243;48.812;9.232;2023-05-29T04:23:36;8.50;;;6.03;;
4460;SDS011;2243;48.812;9.232;2023-05-29T04:26:07;7.80;;;6.13;;
4460;SDS011;2243;48.812;9.232;2023-05-29T04:28:38;6.20;;;5.60;;
4460;SDS011;2243;48.812;9.232;2023-05-29T04:31:09;10.97;;;6.63;;
4460;SDS011;2243;48.812;9.232;2023-05-29T04:33:44;21.90;;;6.70;;
4460;SDS011;2243;48.812;9.232;2023-05-29T04:36:15;15.30;;;6.50;;
4460;SDS011;2243;48.812;9.232;2023-05-29T04:38:46;7.53;;;5.53;;
4460;SDS011;2243;48.812;9.232;2023-05-29T04:41:17;8.40;;;5.80;;
4460;SDS011;2243;48.812;9.232;2023-05-29T04:43:49;7.50;;;5.83;;
4460;SDS011;2243;48.812;9.232;2023-05-29T04:46:25;10.87;;;6.10;;
4460;SDS011;2243;48.812;9.232;2023-05-29T04:48:57;9.73;;;6.30;;
4460;SDS011;2243;48.812;9.232;2023-05-29T04:51:29;9.10;;;6.37;;
4460;SDS011;2243;48.812;9.232;2023-05-29T04:54:00;7.53;;;6.20;;
4460;SDS011;2243;48.812;9.232;2023-05-29T04:56:31;10.63;;;6.60;;
4460;SDS011;2243;48.812;9.232;2023-05-29T04:59:02;7.70;;;6.40;;
4460;SDS011;2243;48.812;9.232;2023-05-29T05:01:33;13.03;;;6.00;;
4460;SDS011;2243;48.812;9.232;2023-05-29T05:04:04;7.73;;;6.17;;
4460;SDS011;2243;48.812;9.232;2023-05-29T05:06:36;8.50;;;6.53;;
4460;SDS011;2243;48.812;9.232;2023-05-29T05:09:08;14.90;;;8.00;;
4460;SDS011;2243;48.812;9.232;2023-05-29T05:11:38;10.77;;;7.10;;
4460;SDS011;2243;48.812;9.232;2023-05-29T05:14:09;9.93;;;6.80;;
4460;SDS011;2243;48.812;9.232;2023-05-29T05:16:40;7.40;;;6.10;;
4460;SDS011;2243;48.812;9.232;2023-05-29T05:19:11;9.10;;;6.43;;
4460;SDS011;2243;48.812;9.232;2023-05-29T05:21:42;7.67;;;6.47;;
4460;SDS011;2243;48.812;9.232;2023-05-29T05:24:14;10.50;;;6.90;;
4460;SDS011;2243;48.812;9.232;2023-05-29T05:26:45;11.20;;;6.60;;
4460;SDS011;2243;48.812;9.232;2023-05-29T05:29:16;11.17;;;6.77;;
4460;SDS011;2243;48.812;9.232;2023-05-29T05:31:47;9.13;;;6.67;;
4460;SDS011;2243;48.812;9.232;2023-05-29T05:34:18;6.80;;;5.60;;
4460;SDS011;2243;48.812;9.232;2023-05-29T05:36:49;7.47;;;5.53;;
4460;SDS011;2243;48.812;9.232;2023-05-29T05:39:20;9.43;;;6.50;;
4460;SDS011;2243;48.812;9.232;2023-05-29T05:41:51;9.10;;;5.97;;
4460;SDS011;2243;48.812;9.232;2023-05-29T05:44:22;7.73;;;5.40;;
4460;SDS011;2243;48.812;9.232;2023-05-29T05:46:53;9.33;;;5.67;;
4460;SDS011;2243;48.812;9.232;2023-05-29T05:49:25;11.73;;;5.73;;
4460;SDS011;2243;48.812;9.232;2023-05-29T05:51:56;8.33;;;5.90;;
4460;SDS011;2243;48.812;9.232;2023-05-29T05:54:27;8.00;;;5.03;;
4460;SDS011;2243;48.812;9.232;2023-05-29T05:56:58;7.30;;;5.33;;
4460;SDS011;2243;48.812;9.232;2023-05-29T05:59:28;11.10;;;6.63;;
4460;SDS011;2243;48.812;9.232;2023-05-29T06:01:59;13.70;;;6.07;;
4460;SDS011;2243;48.812;9.232;2023-05-29T06:04:30;7.43;;;5.30;;
4460;SDS011;2243;48.812;9.232;2023-05-29T06:07:01;8.63;;;6.23;;
4460;SDS011;2243;48.812;9.232;2023-05-29T06:09:33;15.43;;;7.10;;
4460;SDS011;2243;48.812;9.232;2023-05-29T06:12:04;9.13;;;6.63;;
4460;SDS011;2243;48.812;9.232;2023-05-29T06:14:37;7.97;;;5.60;;
4460;SDS011;2243;48.812;9.232;2023-05-29T06:17:08;9.87;;;5.70;;
4460;SDS011;2243;48.812;9.232;2023-05-29T06:19:40;6.70;;;5.13;;
4460;SDS011;2243;48.812;9.232;2023-05-29T06:22:11;13.03;;;6.00;;
4460;SDS011;2243;48.812;9.232;2023-05-29T06:24:42;12.10;;;5.67;;
4460;SDS011;2243;48.812;9.232;2023-05-29T06:27:13;6.27;;;5.60;;
4460;SDS011;2243;48.812;9.232;2023-05-29T06:29:44;6.83;;;4.73;;
4460;SDS011;2243;48.812;9.232;2023-05-29T06:32:15;5.83;;;5.07;;
4460;SDS011;2243;48.812;9.232;2023-05-29T06:34:46;5.47;;;4.97;;
4460;SDS011;2243;48.812;9.232;2023-05-29T06:37:17;9.43;;;5.30;;
4460;SDS011;2243;48.812;9.232;2023-05-29T06:39:48;9.63;;;5.27;;
4460;SDS011;2243;48.812;9.232;2023-05-29T06:42:19;7.90;;;5.20;;
4460;SDS011;2243;48.812;9.232;2023-05-29T06:44:50;6.73;;;5.40;;
4460;SDS011;2243;48.812;9.232;2023-05-29T06:47:21;9.37;;;5.80;;
4460;SDS011;2243;48.812;9.232;2023-05-29T06:49:52;7.20;;;4.87;;
4460;SDS011;2243;48.812;9.232;2023-05-29T06:52:23;5.50;;;4.77;;
4460;SDS011;2243;48.812;9.232;2023-05-29T06:54:55;5.73;;;4.83;;
4460;SDS011;2243;48.812;9.232;2023-05-29T06:57:27;8.97;;;5.70;;
4460;SDS011;2243;48.812;9.232;2023-05-29T06:59:57;10.73;;;5.60;;
4460;SDS011;2243;48.812;9.232;2023-05-29T07:02:28;7.50;;;5.57;;
4460;SDS011;2243;48.812;9.232;2023-05-29T07:04:59;6.63;;;5.23;;
4460;SDS011;2243;48.812;9.232;2023-05-29T07:07:31;4.47;;;4.07;;
4460;SDS011;2243;48.812;9.232;2023-05-29T07:10:02;5.47;;;4.63;;
4460;SDS011;2243;48.812;9.232;2023-05-29T07:12:33;8.20;;;5.00;;
4460;SDS011;2243;48.812;9.232;2023-05-29T07:15:04;5.30;;;4.53;;
4460;SDS011;2243;48.812;9.232;2023-05-29T07:17:36;5.23;;;4.23;;
4460;SDS011;2243;48.812;9.232;2023-05-29T07:20:07;7.03;;;5.60;;
4460;SDS011;2243;48.812;9.232;2023-05-29T07:22:38;5.73;;;4.83;;
4460;SDS011;2243;48.812;9.232;2023-05-29T07:25:09;6.00;;;4.67;;
4460;SDS011;2243;48.812;9.232;2023-05-29T07:27:41;6.93;;;5.07;;
4460;SDS011;2243;48.812;9.232;2023-05-29T07:30:12;9.73;;;5.00;;
4460;SDS011;2243;48.812;9.232;2023-05-29T07:32:43;4.80;;;4.40;;
4460;SDS011;2243;48.812;9.232;2023-05-29T07:35:14;8.47;;;4.73;;
4460;SDS011;2243;48.812;9.232;2023-05-29T07:37:45;5.80;;;4.00;;
4460;SDS011;2243;48.812;9.232;2023-05-29T07:40:18;4.37;;;3.83;;
4460;SDS011;2243;48.812;9.232;2023-05-29T07:42:49;8.90;;;5.03;;
4460;SDS011;2243;48.812;9.232;2023-05-29T07:45:22;6.13;;;5.23;;
4460;SDS011;2243;48.812;9.232;2023-05-29T07:47:54;7.33;;;5.13;;
4460;SDS011;2243;48.812;9.232;2023-05-29T07:50:25;7.10;;;4.60;;
4460;SDS011;2243;48.812;9.232;2023-05-29T07:52:56;10.27;;;4.87;;
4460;SDS011;2243;48.812;9.232;2023-05-29T07:55:27;6.97;;;4.13;;
4460;SDS011;2243;48.812;9.232;2023-05-29T07:57:58;6.57;;;5.13;;
4460;SDS011;2243;48.812;9.232;2023-05-29T08:00:30;8.20;;;4.67;;
4460;SDS011;2243;48.812;9.232;2023-05-29T08:03:01;9.67;;;5.43;;
4460;SDS011;2243;48.812;9.232;2023-05-29T08:05:33;4.93;;;4.33;;
4460;SDS011;2243;48.812;9.232;2023-05-29T08:08:04;4.53;;;4.13;;
4460;SDS011;2243;48.812;9.232;2023-05-29T08:10:35;6.30;;;4.93;;
4460;SDS011;2243;48.812;9.232;2023-05-29T08:13:06;6.63;;;5.77;;
4460;SDS011;2243;48.812;9.232;2023-05-29T08:15:37;16.43;;;5.80;;
4460;SDS011;2243;48.812;9.232;2023-05-29T08:18:08;10.30;;;5.20;;
4460;SDS011;2243;48.812;9.232;2023-05-29T08:20:40;9.33;;;4.70;;
4460;SDS011;2243;48.812;9.232;2023-05-29T08:23:11;11.00;;;5.27;;
4460;SDS011;2243;48.812;9.232;2023-05-29T08:25:42;6.63;;;5.20;;
4460;SDS011;2243;48.812;9.232;2023-05-29T08:28:14;9.40;;;4.97;;
4460;SDS011;2243;48.812;9.232;2023-05-29T08:30:45;7.13;;;5.00;;
4460;SDS011;2243;48.812;9.232;2023-05-29T08:33:16;5.67;;;5.17;;
4460;SDS011;2243;48.812;9.232;2023-05-29T08:35:47;13.77;;;5.17;;
4460;SDS011;2243;48.812;9.232;2023-05-29T08:38:18;8.70;;;5.10;;
4460;SDS011;2243;48.812;9.232;2023-05-29T08:40:51;4.73;;;4.30;;
4460;SDS011;2243;48.812;9.232;2023-05-29T08:43:22;9.37;;;5.50;;
4460;SDS011;2243;48.812;9.232;2023-05-29T08:45:55;8.27;;;4.97;;
4460;SDS011;2243;48.812;9.232;2023-05-29T08:48:30;8.50;;;4.87;;
4460;SDS011;2243;48.812;9.232;2023-05-29T08:51:02;5.30;;;4.43;;
4460;SDS011;2243;48.812;9.232;2023-05-29T08:53:34;5.60;;;4.80;;
4460;SDS011;2243;48.812;9.232;2023-05-29T08:56:05;7.90;;;5.40;;
4460;SDS011;2243;48.812;9.232;2023-05-29T08:58:37;8.03;;;4.57;;
4460;SDS011;2243;48.812;9.232;2023-05-29T09:01:09;5.90;;;4.70;;
4460;SDS011;2243;48.812;9.232;2023-05-29T09:03:40;8.33;;;4.90;;
4460;SDS011;2243;48.812;9.232;2023-05-29T09:06:12;7.70;;;4.37;;
4460;SDS011;2243;48.812;9.232;2023-05-29T09:08:43;5.07;;;3.87;;
4460;SDS011;2243;48.812;9.232;2023-05-29T09:11:14;10.13;;;5.17;;
4460;SDS011;2243;48.812;9.232;2023-05-29T09:13:46;6.90;;;4.17;;
4460;SDS011;2243;48.812;9.232;2023-05-29T09:16:17;6.00;;;4.50;;
4460;SDS011;2243;48.812;9.232;2023-05-29T09:18:48;4.83;;;4.33;;
4460;SDS011;2243;48.812;9.232;2023-05-29T09:21:26;5.50;;;4.73;;
4460;SDS011;2243;48.812;9.232;2023-05-29T09:24:02;6.63;;;5.00;;
4460;SDS011;2243;48.812;9.232;2023-05-29T09:26:37;6.63;;;4.63;;
4460;SDS011;2243;48.812;9.232;2023-05-29T09:29:08;5.17;;;4.57;;
4460;SDS011;2243;48.812;9.232;2023-05-29T09:31:43;6.93;;;4.90;;
4460;SDS011;2243;48.812;9.232;2023-05-29T09:34:21;11.07;;;4.87;;
4460;SDS011;2243;48.812;9.232;2023-05-29T09:37:01;7.27;;;4.40;;
4460;SDS011;2243;48.812;9.232;2023-05-29T09:42:12;5.20;;;4.70;;
4460;SDS011;2243;48.812;9.232;2023-05-29T09:44:46;9.53;;;5.77;;
4460;SDS011;2243;48.812;9.232;2023-05-29T09:47:21;6.07;;;5.23;;
4460;SDS011;2243;48.812;9.232;2023-05-29T09:49:52;4.77;;;4.00;;
4460;SDS011;2243;48.812;9.232;2023-05-29T09:52:25;8.90;;;5.67;;
4460;SDS011;2243;48.812;9.232;2023-05-29T09:55:00;8.27;;;4.97;;
4460;SDS011;2243;48.812;9.232;2023-05-29T09:57:32;6.93;;;4.73;;
4460;SDS011;2243;48.812;9.232;2023-05-29T10:00:04;5.13;;;4.53;;
4460;SDS011;2243;48.812;9.232;2023-05-29T10:02:43;5.60;;;4.80;;
4460;SDS011;2243;48.812;9.232;2023-05-29T10:05:15;5.70;;;4.50;;
4460;SDS011;2243;48.812;9.232;2023-05-29T10:07:47;6.17;;;4.40;;
4460;SDS011;2243;48.812;9.232;2023-05-29T10:10:24;7.27;;;4.30;;
4460;SDS011;2243;48.812;9.232;2023-05-29T10:12:57;6.97;;;3.80;;
4460;SDS011;2243;48.812;9.232;2023-05-29T10:15:28;6.13;;;4.43;;
4460;SDS011;2243;48.812;9.232;2023-05-29T10:18:04;5.93;;;4.67;;
4460;SDS011;2243;48.812;9.232;2023-05-29T10:20:43;5.67;;;4.33;;
4460;SDS011;2243;48.812;9.232;2023-05-29T10:23:15;4.77;;;4.33;;
4460;SDS011;2243;48.812;9.232;2023-05-29T10:25:47;6.23;;;4.63;;
4460;SDS011;2243;48.812;9.232;2023-05-29T10:28:31;4.73;;;3.90;;
4460;SDS011;2243;48.812;9.232;2023-05-29T10:31:05;5.50;;;4.90;;
4460;SDS011;2243;48.812;9.232;2023-05-29T10:33:49;5.10;;;3.80;;
4460;SDS011;2243;48.812;9.232;2023-05-29T10:36:35;4.87;;;4.37;;
4460;SDS011;2243;48.812;9.232;2023-05-29T10:39:14;7.13;;;4.20;;
4460;SDS011;2243;48.812;9.232;2023-05-29T10:41:46;4.40;;;4.00;;
4460;SDS011;2243;48.812;9.232;2023-05-29T10:47:22;4.33;;;3.93;;
4460;SDS011;2243;48.812;9.232;2023-05-29T10:49:54;4.83;;;4.03;;
4460;SDS011;2243;48.812;9.232;2023-05-29T10:52:34;4.37;;;3.87;;
4460;SDS011;2243;48.812;9.232;2023-05-29T10:55:05;5.43;;;4.00;;
4460;SDS011;2243;48.812;9.232;2023-05-29T10:57:40;6.73;;;4.30;;
4460;SDS011;2243;48.812;9.232;2023-05-29T11:00:18;4.30;;;3.90;;
4460;SDS011;2243;48.812;9.232;2023-05-29T11:02:51;10.97;;;4.43;;
4460;SDS011;2243;48.812;9.232;2023-05-29T11:05:23;5.90;;;4.07;;
4460;SDS011;2243;48.812;9.232;2023-05-29T11:07:56;5.73;;;3.83;;
4460;SDS011;2243;48.812;9.232;2023-05-29T11:10:55;7.97;;;4.20;;
4460;SDS011;2243;48.812;9.232;2023-05-29T11:13:37;4.00;;;3.60;;
4460;SDS011;2243;48.812;9.232;2023-05-29T11:18:56;4.10;;;3.87;;
4460;SDS011;2243;48.812;9.232;2023-05-29T11:24:27;4.73;;;3.30;;
4460;SDS011;2243;48.812;9.232;2023-05-29T11:26:59;5.50;;;3.63;;
4460;SDS011;2243;48.812;9.232;2023-05-29T11:29:36;3.90;;;3.50;;
4460;SDS011;2243;48.812;9.232;2023-05-29T11:32:10;3.83;;;3.43;;
4460;SDS011;2243;48.812;9.232;2023-05-29T11:34:44;3.30;;;3.00;;
4460;SDS011;2243;48.812;9.232;2023-05-29T11:37:18;4.27;;;3.87;;
4460;SDS011;2243;48.812;9.232;2023-05-29T11:39:50;4.27;;;3.40;;
4460;SDS011;2243;48.812;9.232;2023-05-29T11:42:21;4.77;;;3.90;;
4460;SDS011;2243;48.812;9.232;2023-05-29T11:45:06;3.90;;;3.30;;
4460;SDS011;2243;48.812;9.232;2023-05-29T11:50:30;3.27;;;3.07;;
4460;SDS011;2243;48.812;9.232;2023-05-29T11:53:05;5.53;;;3.40;;
4460;SDS011;2243;48.812;9.232;2023-05-29T11:55:37;3.53;;;3.23;;
4460;SDS011;2243;48.812;9.232;2023-05-29T11:58:09;3.77;;;3.47;;
4460;SDS011;2243;48.812;9.232;2023-05-29T12:00:40;3.43;;;3.23;;
4460;SDS011;2243;48.812;9.232;2023-05-29T12:03:13;6.00;;;3.73;;
4460;SDS011;2243;48.812;9.232;2023-05-29T12:05:45;4.53;;;3.17;;
4460;SDS011;2243;48.812;9.232;2023-05-29T12:08:26;5.57;;;4.07;;
4460;SDS011;2243;48.812;9.232;2023-05-29T12:10:57;3.50;;;3.20;;
4460;SDS011;2243;48.812;9.232;2023-05-29T12:13:28;3.70;;;3.40;;
4460;SDS011;2243;48.812;9.232;2023-05-29T12:16:02;4.53;;;3.30;;
4460;SDS011;2243;48.812;9.232;2023-05-29T12:18:35;3.40;;;3.10;;
4460;SDS011;2243;48.812;9.232;2023-05-29T12:21:06;3.73;;;3.43;;
4460;SDS011;2243;48.812;9.232;2023-05-29T12:23:37;4.77;;;3.30;;
4460;SDS011;2243;48.812;9.232;2023-05-29T12:26:09;3.33;;;3.03;;
4460;SDS011;2243;48.812;9.232;2023-05-29T12:28:46;4.47;;;3.30;;
4460;SDS011;2243;48.812;9.232;2023-05-29T12:31:28;4.87;;;3.67;;
4460;SDS011;2243;48.812;9.232;2023-05-29T12:34:01;3.27;;;2.97;;
4460;SDS011;2243;48.812;9.232;2023-05-29T12:36:40;3.37;;;3.17;;
4460;SDS011;2243;48.812;9.232;2023-05-29T12:39:13;6.07;;;3.53;;
4460;SDS011;2243;48.812;9.232;2023-05-29T12:41:47;3.53;;;3.00;;
4460;SDS011;2243;48.812;9.232;2023-05-29T12:44:18;3.23;;;3.03;;
4460;SDS011;2243;48.812;9.232;2023-05-29T12:46:55;6.27;;;3.80;;
4460;SDS011;2243;48.812;9.232;2023-05-29T12:49:27;5.03;;;3.30;;
4460;SDS011;2243;48.812;9.232;2023-05-29T12:52:04;5.30;;;3.30;;
4460;SDS011;2243;48.812;9.232;2023-05-29T12:54:42;4.43;;;3.57;;
4460;SDS011;2243;48.812;9.232;2023-05-29T12:57:13;5.10;;;3.40;;
4460;SDS011;2243;48.812;9.232;2023-05-29T12:59:44;4.30;;;3.53;;
4460;SDS011;2243;48.812;9.232;2023-05-29T13:02:15;4.90;;;3.60;;
4460;SDS011;2243;48.812;9.232;2023-05-29T13:04:46;4.17;;;3.77;;
4460;SDS011;2243;48.812;9.232;2023-05-29T13:07:17;5.90;;;2.80;;
4460;SDS011;2243;48.812;9.232;2023-05-29T13:09:48;6.17;;;3.30;;
4460;SDS011;2243;48.812;9.232;2023-05-29T13:12:20;3.20;;;2.90;;
4460;SDS011;2243;48.812;9.232;2023-05-29T13:14:51;3.27;;;3.00;;
4460;SDS011;2243;48.812;9.232;2023-05-29T13:17:22;3.13;;;2.93;;
4460;SDS011;2243;48.812;9.232;2023-05-29T13:19:53;3.43;;;3.07;;
4460;SDS011;2243;48.812;9.232;2023-05-29T13:22:24;3.33;;;3.03;;
4460;SDS011;2243;48.812;9.232;2023-05-29T13:25:00;3.40;;;3.20;;
4460;SDS011;2243;48.812;9.232;2023-05-29T13:27:32;5.30;;;3.50;;
4460;SDS011;2243;48.812;9.232;2023-05-29T13:30:05;4.13;;;3.70;;
4460;SDS011;2243;48.812;9.232;2023-05-29T13:32:37;3.40;;;3.20;;
4460;SDS011;2243;48.812;9.232;2023-05-29T13:35:08;7.37;;;3.23;;
4460;SDS011;2243;48.812;9.232;2023-05-29T13:37:40;3.87;;;3.43;;
4460;SDS011;2243;48.812;9.232;2023-05-29T13:40:11;3.30;;;3.00;;
4460;SDS011;2243;48.812;9.232;2023-05-29T13:42:43;3.30;;;3.00;;
4460;SDS011;2243;48.812;9.232;2023-05-29T13:45:14;4.03;;;3.17;;
4460;SDS011;2243;48.812;9.232;2023-05-29T13:47:45;4.03;;;3.27;;
4460;SDS011;2243;48.812;9.232;2023-05-29T13:50:16;3.27;;;3.00;;
4460;SDS011;2243;48.812;9.232;2023-05-29T13:52:47;3.93;;;3.30;;
4460;SDS011;2243;48.812;9.232;2023-05-29T13:55:18;3.90;;;3.43;;
4460;SDS011;2243;48.812;9.232;2023-05-29T13:57:50;3.57;;;3.27;;
4460;SDS011;2243;48.812;9.232;2023-05-29T14:00:20;7.43;;;3.33;;
4460;SDS011;2243;48.812;9.232;2023-05-29T14:02:51;2.90;;;2.80;;
4460;SDS011;2243;48.812;9.232;2023-05-29T14:05:23;3.60;;;3.30;;
4460;SDS011;2243;48.812;9.232;2023-05-29T14:07:54;3.43;;;3.13;;
4460;SDS011;2243;48.812;9.232;2023-05-29T14:10:25;3.53;;;3.33;;
4460;SDS011;2243;48.812;9.232;2023-05-29T14:12:56;4.60;;;3.57;;
4460;SDS011;2243;48.812;9.232;2023-05-29T14:15:27;9.43;;;3.33;;
4460;SDS011;2243;48.812;9.232;2023-05-29T14:17:58;3.47;;;3.00;;
4460;SDS011;2243;48.812;9.232;2023-05-29T14:20:30;3.37;;;3.07;;
4460;SDS011;2243;48.812;9.232;2023-05-29T14:23:01;11.53;;;3.50;;
4460;SDS011;2243;48.812;9.232;2023-05-29T14:25:32;3.57;;;3.10;;
4460;SDS011;2243;48.812;9.232;2023-05-29T14:28:03;2.90;;;2.70;;
4460;SDS011;2243;48.812;9.232;2023-05-29T14:30:34;3.67;;;2.70;;
4460;SDS011;2243;48.812;9.232;2023-05-29T14:33:05;3.57;;;3.33;;
4460;SDS011;2243;48.812;9.232;2023-05-29T14:35:36;3.50;;;3.20;;
4460;SDS011;2243;48.812;9.232;2023-05-29T14:38:07;3.50;;;3.20;;
4460;SDS011;2243;48.812;9.232;2023-05-29T14:40:38;4.27;;;3.30;;
4460;SDS011;2243;48.812;9.232;2023-05-29T14:43:09;3.30;;;3.00;;
4460;SDS011;2243;48.812;9.232;2023-05-29T14:45:40;3.77;;;3.40;;
4460;SDS011;2243;48.812;9.232;2023-05-29T14:48:11;4.43;;;4.03;;
4460;SDS011;2243;48.812;9.232;2023-05-29T14:50:42;4.00;;;3.23;;
4460;SDS011;2243;48.812;9.232;2023-05-29T14:53:13;3.23;;;3.03;;
4460;SDS011;2243;48.812;9.232;2023-05-29T14:55:44;3.03;;;2.73;;
4460;SDS011;2243;48.812;9.232;2023-05-29T14:58:15;3.13;;;2.70;;
4460;SDS011;2243;48.812;9.232;2023-05-29T15:00:46;3.10;;;2.90;;
4460;SDS011;2243;48.812;9.232;2023-05-29T15:03:17;4.90;;;3.10;;
4460;SDS011;2243;48.812;9.232;2023-05-29T15:05:49;3.77;;;3.40;;
4460;SDS011;2243;48.812;9.232;2023-05-29T15:08:20;4.67;;;3.27;;
4460;SDS011;2243;48.812;9.232;2023-05-29T15:10:51;3.43;;;3.13;;
4460;SDS011;2243;48.812;9.232;2023-05-29T15:13:22;3.90;;;2.50;;
4460;SDS011;2243;48.812;9.232;2023-05-29T15:15:54;4.03;;;3.20;;
4460;SDS011;2243;48.812;9.232;2023-05-29T15:18:29;2.87;;;2.70;;
4460;SDS011;2243;48.812;9.232;2023-05-29T15:21:01;2.77;;;2.67;;
4460;SDS011;2243;48.812;9.232;2023-05-29T15:23:33;3.00;;;2.90;;
4460;SDS011;2243;48.812;9.232;2023-05-29T15:26:06;2.93;;;2.73;;
4460;SDS011;2243;48.812;9.232;2023-05-29T15:28:37;3.97;;;2.93;;
4460;SDS011;2243;48.812;9.232;2023-05-29T15:31:08;3.43;;;3.10;;
4460;SDS011;2243;48.812;9.232;2023-05-29T15:33:39;2.93;;;2.73;;
4460;SDS011;2243;48.812;9.232;2023-05-29T15:36:11;5.80;;;3.27;;
4460;SDS011;2243;48.812;9.232;2023-05-29T15:38:42;3.57;;;3.37;;
4460;SDS011;2243;48.812;9.232;2023-05-29T15:41:13;2.87;;;2.67;;
4460;SDS011;2243;48.812;9.232;2023-05-29T15:43:44;4.57;;;3.77;;
4460;SDS011;2243;48.812;9.232;2023-05-29T15:46:15;4.10;;;2.90;;
4460;SDS011;2243;48.812;9.232;2023-05-29T15:48:46;4.60;;;3.00;;
4460;SDS011;2243;48.812;9.232;2023-05-29T15:51:17;4.60;;;2.80;;
4460;SDS011;2243;48.812;9.232;2023-05-29T15:53:48;5.37;;;2.77;;
4460;SDS011;2243;48.812;9.232;2023-05-29T15:56:19;3.33;;;3.03;;
4460;SDS011;2243;48.812;9.232;2023-05-29T15:58:56;3.13;;;2.93;;
4460;SDS011;2243;48.812;9.232;2023-05-29T16:01:27;3.63;;;2.70;;
4460;SDS011;2243;48.812;9.232;2023-05-29T16:03:59;2.70;;;2.60;;
4460;SDS011;2243;48.812;9.232;2023-05-29T16:06:30;4.00;;;3.03;;
4460;SDS011;2243;48.812;9.232;2023-05-29T16:09:02;3.67;;;2.90;;
4460;SDS011;2243;48.812;9.232;2023-05-29T16:11:34;5.30;;;3.10;;